sensor_id;sensor_type;location;lat;lon;timestamp;temperature;humidity
43999;DHT22;51319;52.162;5.302;2023-11-19T00:01:35;13.10;99.90
43999;DHT22;51319;52.162;5.302;2023-11-19T00:04:02;13.10;99.90
43999;DHT22;51319;52.162;5.302;2023-11-19T00:06:31;13.10;99.90
43999;DHT22;51319;52.162;5.302;2023-11-19T00:08:59;13.10;99.90
43999;DHT22;51319;52.162;5.302;2023-11-19T00:11:26;13.10;99.90
43999;DHT22;51319;52.162;5.302;2023-11-19T00:13:54;13.10;99.90
43999;DHT22;51319;52.162;5.302;2023-11-19T00:16:21;13.10;99.90
43999;DHT22;51319;52.162;5.302;2023-11-19T00:18:48;13.10;99.90
43999;DHT22;51319;52.162;5.302;2023-11-19T00:21:16;13.10;99.90
43999;DHT22;51319;52.162;5.302;2023-11-19T00:23:43;13.00;99.90
43999;DHT22;51319;52.162;5.302;2023-11-19T00:26:10;13.00;99.90
43999;DHT22;51319;52.162;5.302;2023-11-19T00:28:37;13.00;99.90
43999;DHT22;51319;52.162;5.302;2023-11-19T00:31:05;13.00;99.90
43999;DHT22;51319;52.162;5.302;2023-11-19T00:33:32;13.00;99.90
43999;DHT22;51319;52.162;5.302;2023-11-19T00:35:59;12.90;99.90
43999;DHT22;51319;52.162;5.302;2023-11-19T00:38:26;13.00;99.90
43999;DHT22;51319;52.162;5.302;2023-11-19T00:40:53;13.00;99.90
43999;DHT22;51319;52.162;5.302;2023-11-19T00:43:20;12.90;99.90
43999;DHT22;51319;52.162;5.302;2023-11-19T00:45:49;13.00;99.90
43999;DHT22;51319;52.162;5.302;2023-11-19T00:48:19;13.00;99.90
43999;DHT22;51319;52.162;5.302;2023-11-19T00:50:45;13.00;99.90
43999;DHT22;51319;52.162;5.302;2023-11-19T00:53:13;13.00;99.90
43999;DHT22;51319;52.162;5.302;2023-11-19T00:55:40;13.00;99.90
43999;DHT22;51319;52.162;5.302;2023-11-19T00:58:10;13.00;99.90
43999;DHT22;51319;52.162;5.302;2023-11-19T01:00:37;13.00;99.90
43999;DHT22;51319;52.162;5.302;2023-11-19T01:03:04;13.00;99.90
43999;DHT22;51319;52.162;5.302;2023-11-19T01:05:31;13.00;99.90
43999;DHT22;51319;52.162;5.302;2023-11-19T01:07:59;13.00;99.90
43999;DHT22;51319;52.162;5.302;2023-11-19T01:10:26;13.00;99.90
43999;DHT22;51319;52.162;5.302;2023-11-19T01:12:53;13.00;99.90
43999;DHT22;51319;52.162;5.302;2023-11-19T01:15:20;13.00;99.90
43999;DHT22;51319;52.162;5.302;2023-11-19T01:17:47;12.90;99.90
43999;DHT22;51319;52.162;5.302;2023-11-19T01:20:18;13.00;99.90
43999;DHT22;51319;52.162;5.302;2023-11-19T01:22:47;12.90;99.90
43999;DHT22;51319;52.162;5.302;2023-11-19T01:25:15;12.90;99.90
43999;DHT22;51319;52.162;5.302;2023-11-19T01:27:42;12.90;99.90
43999;DHT22;51319;52.162;5.302;2023-11-19T01:30:11;12.90;99.90
43999;DHT22;51319;52.162;5.302;2023-11-19T01:32:41;12.90;99.90
43999;DHT22;51319;52.162;5.302;2023-11-19T01:35:08;12.90;99.90
43999;DHT22;51319;52.162;5.302;2023-11-19T01:37:35;12.90;99.90
43999;DHT22;51319;52.162;5.302;2023-11-19T01:40:03;12.90;99.90
43999;DHT22;51319;52.162;5.302;2023-11-19T01:42:38;12.90;99.90
43999;DHT22;51319;52.162;5.302;2023-11-19T01:45:06;12.90;99.90
43999;DHT22;51319;52.162;5.302;2023-11-19T01:47:35;12.90;99.90
43999;DHT22;51319;52.162;5.302;2023-11-19T01:50:03;12.90;99.90
43999;DHT22;51319;52.162;5.302;2023-11-19T01:52:34;12.90;99.90
43999;DHT22;51319;52.162;5.302;2023-11-19T01:55:07;12.80;99.90
43999;DHT22;51319;52.162;5.302;2023-11-19T01:57:37;12.80;99.90
43999;DHT22;51319;52.162;5.302;2023-11-19T02:00:06;12.70;99.90
43999;DHT22;51319;52.162;5.302;2023-11-19T02:02:33;12.70;99.90
43999;DHT22;51319;52.162;5.302;2023-11-19T02:05:01;12.60;99.90
43999;DHT22;51319;52.162;5.302;2023-11-19T02:07:29;12.60;99.90
43999;DHT22;51319;52.162;5.302;2023-11-19T02:09:56;12.50;99.90
43999;DHT22;51319;52.162;5.302;2023-11-19T02:12:26;12.40;99.90
43999;DHT22;51319;52.162;5.302;2023-11-19T02:14:57;12.40;99.90
43999;DHT22;51319;52.162;5.302;2023-11-19T02:17:27;12.30;99.90
43999;DHT22;51319;52.162;5.302;2023-11-19T02:19:54;12.20;99.90
43999;DHT22;51319;52.162;5.302;2023-11-19T02:22:22;12.10;99.90
43999;DHT22;51319;52.162;5.302;2023-11-19T02:24:51;12.10;99.90
43999;DHT22;51319;52.162;5.302;2023-11-19T02:30:02;12.00;99.90
43999;DHT22;51319;52.162;5.302;2023-11-19T02:32:32;11.90;99.90
43999;DHT22;51319;52.162;5.302;2023-11-19T02:35:00;11.90;99.90
43999;DHT22;51319;52.162;5.302;2023-11-19T02:37:30;11.90;99.90
43999;DHT22;51319;52.162;5.302;2023-11-19T02:39:57;11.90;99.90
43999;DHT22;51319;52.162;5.302;2023-11-19T02:42:30;11.90;99.90
43999;DHT22;51319;52.162;5.302;2023-11-19T02:44:57;11.90;99.90
43999;DHT22;51319;52.162;5.302;2023-11-19T02:47:24;11.90;99.90
43999;DHT22;51319;52.162;5.302;2023-11-19T02:49:51;11.90;99.90
43999;DHT22;51319;52.162;5.302;2023-11-19T02:52:20;11.80;99.90
43999;DHT22;51319;52.162;5.302;2023-11-19T02:54:47;11.80;99.90
43999;DHT22;51319;52.162;5.302;2023-11-19T02:57:14;11.80;99.90
43999;DHT22;51319;52.162;5.302;2023-11-19T02:59:44;11.80;99.90
43999;DHT22;51319;52.162;5.302;2023-11-19T03:02:11;11.80;99.90
43999;DHT22;51319;52.162;5.302;2023-11-19T03:04:39;11.80;99.90
43999;DHT22;51319;52.162;5.302;2023-11-19T03:07:12;11.70;99.90
43999;DHT22;51319;52.162;5.302;2023-11-19T03:09:40;11.70;99.90
43999;DHT22;51319;52.162;5.302;2023-11-19T03:12:07;11.70;99.90
43999;DHT22;51319;52.162;5.302;2023-11-19T03:14:34;11.60;99.90
43999;DHT22;51319;52.162;5.302;2023-11-19T03:17:02;11.60;99.90
43999;DHT22;51319;52.162;5.302;2023-11-19T03:19:30;11.50;99.90
43999;DHT22;51319;52.162;5.302;2023-11-19T03:21:57;11.50;99.90
43999;DHT22;51319;52.162;5.302;2023-11-19T03:24:24;11.50;99.90
43999;DHT22;51319;52.162;5.302;2023-11-19T03:26:51;11.50;99.90
43999;DHT22;51319;52.162;5.302;2023-11-19T03:29:18;11.40;99.90
43999;DHT22;51319;52.162;5.302;2023-11-19T03:31:45;11.40;99.90
43999;DHT22;51319;52.162;5.302;2023-11-19T03:34:12;11.40;99.90
43999;DHT22;51319;52.162;5.302;2023-11-19T03:36:39;11.30;99.90
43999;DHT22;51319;52.162;5.302;2023-11-19T03:39:06;11.30;99.90
43999;DHT22;51319;52.162;5.302;2023-11-19T03:41:33;11.20;99.90
43999;DHT22;51319;52.162;5.302;2023-11-19T03:44:03;11.20;99.90
43999;DHT22;51319;52.162;5.302;2023-11-19T03:46:31;11.20;99.90
43999;DHT22;51319;52.162;5.302;2023-11-19T03:48:58;11.20;99.90
43999;DHT22;51319;52.162;5.302;2023-11-19T03:51:25;11.10;99.90
43999;DHT22;51319;52.162;5.302;2023-11-19T03:53:52;11.10;99.90
43999;DHT22;51319;52.162;5.302;2023-11-19T03:56:19;11.10;99.90
43999;DHT22;51319;52.162;5.302;2023-11-19T03:58:47;11.10;99.90
43999;DHT22;51319;52.162;5.302;2023-11-19T04:01:14;11.00;99.90
43999;DHT22;51319;52.162;5.302;2023-11-19T04:03:41;11.00;99.90
43999;DHT22;51319;52.162;5.302;2023-11-19T04:06:11;11.00;99.90
43999;DHT22;51319;52.162;5.302;2023-11-19T04:08:38;11.00;99.90
43999;DHT22;51319;52.162;5.302;2023-11-19T04:11:05;11.00;99.90
43999;DHT22;51319;52.162;5.302;2023-11-19T04:13:32;11.00;99.90
43999;DHT22;51319;52.162;5.302;2023-11-19T04:16:02;11.00;99.90
43999;DHT22;51319;52.162;5.302;2023-11-19T04:18:29;11.00;99.90
43999;DHT22;51319;52.162;5.302;2023-11-19T04:20:56;11.00;99.90
43999;DHT22;51319;52.162;5.302;2023-11-19T04:23:24;10.90;99.90
43999;DHT22;51319;52.162;5.302;2023-11-19T04:25:51;10.90;99.90
43999;DHT22;51319;52.162;5.302;2023-11-19T04:28:18;10.90;99.90
43999;DHT22;51319;52.162;5.302;2023-11-19T04:30:45;10.90;99.90
43999;DHT22;51319;52.162;5.302;2023-11-19T04:33:12;10.90;99.90
43999;DHT22;51319;52.162;5.302;2023-11-19T04:35:39;10.80;99.90
43999;DHT22;51319;52.162;5.302;2023-11-19T04:38:06;10.80;99.90
43999;DHT22;51319;52.162;5.302;2023-11-19T04:40:33;10.80;99.90
43999;DHT22;51319;52.162;5.302;2023-11-19T04:43:00;10.70;99.90
43999;DHT22;51319;52.162;5.302;2023-11-19T04:45:27;10.70;99.90
43999;DHT22;51319;52.162;5.302;2023-11-19T04:47:54;10.70;99.90
43999;DHT22;51319;52.162;5.302;2023-11-19T04:50:21;10.70;99.90
43999;DHT22;51319;52.162;5.302;2023-11-19T04:52:48;10.70;99.90
43999;DHT22;51319;52.162;5.302;2023-11-19T04:55:15;10.70;99.90
43999;DHT22;51319;52.162;5.302;2023-11-19T04:57:42;10.70;99.90
43999;DHT22;51319;52.162;5.302;2023-11-19T05:00:10;10.70;99.90
43999;DHT22;51319;52.162;5.302;2023-11-19T05:02:40;10.70;99.90
43999;DHT22;51319;52.162;5.302;2023-11-19T05:05:08;10.70;99.90
43999;DHT22;51319;52.162;5.302;2023-11-19T05:07:36;10.60;99.90
43999;DHT22;51319;52.162;5.302;2023-11-19T05:10:03;10.60;99.90
43999;DHT22;51319;52.162;5.302;2023-11-19T05:12:31;10.70;99.90
43999;DHT22;51319;52.162;5.302;2023-11-19T05:14:58;10.80;99.90
43999;DHT22;51319;52.162;5.302;2023-11-19T05:17:25;10.80;99.90
43999;DHT22;51319;52.162;5.302;2023-11-19T05:19:52;10.80;99.90
43999;DHT22;51319;52.162;5.302;2023-11-19T05:22:19;10.80;99.90
43999;DHT22;51319;52.162;5.302;2023-11-19T05:24:47;10.70;99.90
43999;DHT22;51319;52.162;5.302;2023-11-19T05:27:16;10.70;99.90
43999;DHT22;51319;52.162;5.302;2023-11-19T05:29:43;10.70;99.90
43999;DHT22;51319;52.162;5.302;2023-11-19T05:32:10;10.60;99.90
43999;DHT22;51319;52.162;5.302;2023-11-19T05:34:38;10.60;99.90
43999;DHT22;51319;52.162;5.302;2023-11-19T05:37:19;10.60;99.90
43999;DHT22;51319;52.162;5.302;2023-11-19T05:39:46;10.60;99.90
43999;DHT22;51319;52.162;5.302;2023-11-19T05:42:13;10.60;99.90
43999;DHT22;51319;52.162;5.302;2023-11-19T05:44:41;10.60;99.90
43999;DHT22;51319;52.162;5.302;2023-11-19T05:47:08;10.50;99.90
43999;DHT22;51319;52.162;5.302;2023-11-19T05:49:35;10.50;99.90
43999;DHT22;51319;52.162;5.302;2023-11-19T05:52:02;10.50;99.90
43999;DHT22;51319;52.162;5.302;2023-11-19T05:54:30;10.40;99.90
43999;DHT22;51319;52.162;5.302;2023-11-19T05:57:00;10.40;99.90
43999;DHT22;51319;52.162;5.302;2023-11-19T05:59:27;10.40;99.90
43999;DHT22;51319;52.162;5.302;2023-11-19T06:01:54;10.40;99.90
43999;DHT22;51319;52.162;5.302;2023-11-19T06:04:21;10.50;99.90
43999;DHT22;51319;52.162;5.302;2023-11-19T06:06:48;10.50;99.90
43999;DHT22;51319;52.162;5.302;2023-11-19T06:09:15;10.50;99.90
43999;DHT22;51319;52.162;5.302;2023-11-19T06:11:45;10.50;99.90
43999;DHT22;51319;52.162;5.302;2023-11-19T06:14:13;10.50;99.90
43999;DHT22;51319;52.162;5.302;2023-11-19T06:16:40;10.50;99.90
43999;DHT22;51319;52.162;5.302;2023-11-19T06:19:07;10.40;99.90
43999;DHT22;51319;52.162;5.302;2023-11-19T06:21:34;10.40;99.90
43999;DHT22;51319;52.162;5.302;2023-11-19T06:24:03;10.40;99.90
43999;DHT22;51319;52.162;5.302;2023-11-19T06:26:30;10.40;99.90
43999;DHT22;51319;52.162;5.302;2023-11-19T06:28:57;10.30;99.90
43999;DHT22;51319;52.162;5.302;2023-11-19T06:31:24;10.30;99.90
43999;DHT22;51319;52.162;5.302;2023-11-19T06:33:52;10.30;99.90
43999;DHT22;51319;52.162;5.302;2023-11-19T06:36:19;10.40;99.90
43999;DHT22;51319;52.162;5.302;2023-11-19T06:38:46;10.40;99.90
43999;DHT22;51319;52.162;5.302;2023-11-19T06:41:13;10.40;99.90
43999;DHT22;51319;52.162;5.302;2023-11-19T06:43:40;10.40;99.90
43999;DHT22;51319;52.162;5.302;2023-11-19T06:46:15;10.40;99.90
43999;DHT22;51319;52.162;5.302;2023-11-19T06:48:42;10.40;99.90
43999;DHT22;51319;52.162;5.302;2023-11-19T06:51:11;10.40;99.90
43999;DHT22;51319;52.162;5.302;2023-11-19T06:53:38;10.50;99.90
43999;DHT22;51319;52.162;5.302;2023-11-19T06:56:21;10.50;99.90
43999;DHT22;51319;52.162;5.302;2023-11-19T06:58:48;10.60;99.90
43999;DHT22;51319;52.162;5.302;2023-11-19T07:01:16;10.60;99.90
43999;DHT22;51319;52.162;5.302;2023-11-19T07:03:44;10.60;99.90
43999;DHT22;51319;52.162;5.302;2023-11-19T07:06:11;10.60;99.90
43999;DHT22;51319;52.162;5.302;2023-11-19T07:08:41;10.70;99.90
43999;DHT22;51319;52.162;5.302;2023-11-19T07:11:08;10.70;99.90
43999;DHT22;51319;52.162;5.302;2023-11-19T07:13:37;10.70;99.90
43999;DHT22;51319;52.162;5.302;2023-11-19T07:16:04;10.60;99.90
43999;DHT22;51319;52.162;5.302;2023-11-19T07:18:32;10.60;99.90
43999;DHT22;51319;52.162;5.302;2023-11-19T07:20:58;10.70;99.90
43999;DHT22;51319;52.162;5.302;2023-11-19T07:23:26;10.60;99.90
43999;DHT22;51319;52.162;5.302;2023-11-19T07:25:53;10.60;99.90
43999;DHT22;51319;52.162;5.302;2023-11-19T07:28:20;10.70;99.90
43999;DHT22;51319;52.162;5.302;2023-11-19T07:30:47;10.70;99.90
43999;DHT22;51319;52.162;5.302;2023-11-19T07:33:14;10.70;99.90
43999;DHT22;51319;52.162;5.302;2023-11-19T07:35:42;10.70;99.90
43999;DHT22;51319;52.162;5.302;2023-11-19T07:38:10;10.70;99.90
43999;DHT22;51319;52.162;5.302;2023-11-19T07:40:37;10.70;99.90
43999;DHT22;51319;52.162;5.302;2023-11-19T07:43:04;10.70;99.90
43999;DHT22;51319;52.162;5.302;2023-11-19T07:45:31;10.70;99.90
43999;DHT22;51319;52.162;5.302;2023-11-19T07:47:58;10.80;99.90
43999;DHT22;51319;52.162;5.302;2023-11-19T07:50:25;10.80;99.90
43999;DHT22;51319;52.162;5.302;2023-11-19T07:52:53;10.90;99.90
43999;DHT22;51319;52.162;5.302;2023-11-19T07:55:20;11.00;99.90
43999;DHT22;51319;52.162;5.302;2023-11-19T07:57:47;11.00;99.90
43999;DHT22;51319;52.162;5.302;2023-11-19T08:00:16;11.00;99.90
43999;DHT22;51319;52.162;5.302;2023-11-19T08:02:42;11.10;99.90
43999;DHT22;51319;52.162;5.302;2023-11-19T08:05:10;11.10;99.90
43999;DHT22;51319;52.162;5.302;2023-11-19T08:07:38;11.20;99.90
43999;DHT22;51319;52.162;5.302;2023-11-19T08:10:07;11.30;99.90
43999;DHT22;51319;52.162;5.302;2023-11-19T08:12:37;11.40;99.90
43999;DHT22;51319;52.162;5.302;2023-11-19T08:15:04;11.50;99.90
43999;DHT22;51319;52.162;5.302;2023-11-19T08:17:34;11.70;99.90
43999;DHT22;51319;52.162;5.302;2023-11-19T08:20:01;11.90;99.90
43999;DHT22;51319;52.162;5.302;2023-11-19T08:22:28;11.90;99.90
43999;DHT22;51319;52.162;5.302;2023-11-19T08:24:55;11.90;99.90
43999;DHT22;51319;52.162;5.302;2023-11-19T08:27:22;11.90;99.90
43999;DHT22;51319;52.162;5.302;2023-11-19T08:29:54;12.20;99.90
43999;DHT22;51319;52.162;5.302;2023-11-19T08:32:27;12.40;99.90
43999;DHT22;51319;52.162;5.302;2023-11-19T08:34:54;12.40;99.90
43999;DHT22;51319;52.162;5.302;2023-11-19T08:37:23;12.50;99.90
43999;DHT22;51319;52.162;5.302;2023-11-19T08:39:53;12.70;99.90
43999;DHT22;51319;52.162;5.302;2023-11-19T08:42:20;12.70;99.90
43999;DHT22;51319;52.162;5.302;2023-11-19T08:44:49;12.80;99.90
43999;DHT22;51319;52.162;5.302;2023-11-19T08:47:17;12.90;99.90
43999;DHT22;51319;52.162;5.302;2023-11-19T08:49:52;12.80;99.90
43999;DHT22;51319;52.162;5.302;2023-11-19T08:52:22;12.80;99.90
43999;DHT22;51319;52.162;5.302;2023-11-19T08:54:49;12.70;99.90
43999;DHT22;51319;52.162;5.302;2023-11-19T08:57:24;12.60;99.90
43999;DHT22;51319;52.162;5.302;2023-11-19T08:59:51;12.60;99.90
43999;DHT22;51319;52.162;5.302;2023-11-19T09:02:18;12.60;99.90
43999;DHT22;51319;52.162;5.302;2023-11-19T09:04:45;12.60;99.90
43999;DHT22;51319;52.162;5.302;2023-11-19T09:07:12;12.60;99.90
43999;DHT22;51319;52.162;5.302;2023-11-19T09:09:39;12.50;99.90
43999;DHT22;51319;52.162;5.302;2023-11-19T09:12:06;12.60;99.90
43999;DHT22;51319;52.162;5.302;2023-11-19T09:14:34;12.60;99.90
43999;DHT22;51319;52.162;5.302;2023-11-19T09:17:01;12.80;99.90
43999;DHT22;51319;52.162;5.302;2023-11-19T09:19:32;12.70;99.90
43999;DHT22;51319;52.162;5.302;2023-11-19T09:21:59;12.60;99.90
43999;DHT22;51319;52.162;5.302;2023-11-19T09:24:26;12.50;99.90
43999;DHT22;51319;52.162;5.302;2023-11-19T09:26:56;12.50;99.90
43999;DHT22;51319;52.162;5.302;2023-11-19T09:29:23;12.50;99.90
43999;DHT22;51319;52.162;5.302;2023-11-19T09:31:50;12.50;99.90
43999;DHT22;51319;52.162;5.302;2023-11-19T09:34:17;12.50;99.90
43999;DHT22;51319;52.162;5.302;2023-11-19T09:36:44;12.50;99.90
43999;DHT22;51319;52.162;5.302;2023-11-19T09:39:12;12.50;99.90
43999;DHT22;51319;52.162;5.302;2023-11-19T09:41:41;12.60;99.90
43999;DHT22;51319;52.162;5.302;2023-11-19T09:44:09;12.60;99.90
43999;DHT22;51319;52.162;5.302;2023-11-19T09:46:41;12.70;99.90
43999;DHT22;51319;52.162;5.302;2023-11-19T09:49:08;12.70;99.90
43999;DHT22;51319;52.162;5.302;2023-11-19T09:51:36;12.70;99.90
43999;DHT22;51319;52.162;5.302;2023-11-19T09:54:03;12.70;99.90
43999;DHT22;51319;52.162;5.302;2023-11-19T09:56:31;12.70;99.90
43999;DHT22;51319;52.162;5.302;2023-11-19T09:58:59;12.80;99.90
43999;DHT22;51319;52.162;5.302;2023-11-19T10:01:26;12.90;99.90
43999;DHT22;51319;52.162;5.302;2023-11-19T10:03:55;13.10;99.90
43999;DHT22;51319;52.162;5.302;2023-11-19T10:06:23;13.10;99.90
43999;DHT22;51319;52.162;5.302;2023-11-19T10:08:51;13.10;99.90
43999;DHT22;51319;52.162;5.302;2023-11-19T10:11:18;13.10;99.90
43999;DHT22;51319;52.162;5.302;2023-11-19T10:13:45;13.10;99.90
43999;DHT22;51319;52.162;5.302;2023-11-19T10:16:15;13.00;99.90
43999;DHT22;51319;52.162;5.302;2023-11-19T10:18:46;13.20;99.90
43999;DHT22;51319;52.162;5.302;2023-11-19T10:21:14;13.40;99.90
43999;DHT22;51319;52.162;5.302;2023-11-19T10:23:51;13.50;99.90
43999;DHT22;51319;52.162;5.302;2023-11-19T10:26:20;13.50;99.90
43999;DHT22;51319;52.162;5.302;2023-11-19T10:28:48;13.60;99.90
43999;DHT22;51319;52.162;5.302;2023-11-19T10:31:16;13.80;99.90
43999;DHT22;51319;52.162;5.302;2023-11-19T10:33:45;13.90;99.90
43999;DHT22;51319;52.162;5.302;2023-11-19T10:36:13;14.00;99.90
43999;DHT22;51319;52.162;5.302;2023-11-19T10:38:41;14.30;99.90
43999;DHT22;51319;52.162;5.302;2023-11-19T10:41:31;14.50;99.90
43999;DHT22;51319;52.162;5.302;2023-11-19T10:43:59;14.50;99.90
43999;DHT22;51319;52.162;5.302;2023-11-19T10:46:42;14.50;99.90
43999;DHT22;51319;52.162;5.302;2023-11-19T10:49:10;14.60;99.90
43999;DHT22;51319;52.162;5.302;2023-11-19T10:51:44;14.80;99.90
43999;DHT22;51319;52.162;5.302;2023-11-19T10:54:15;15.10;99.90
43999;DHT22;51319;52.162;5.302;2023-11-19T10:56:44;15.30;99.90
43999;DHT22;51319;52.162;5.302;2023-11-19T10:59:14;15.70;99.90
43999;DHT22;51319;52.162;5.302;2023-11-19T11:01:45;16.00;99.90
43999;DHT22;51319;52.162;5.302;2023-11-19T11:04:15;16.70;99.90
43999;DHT22;51319;52.162;5.302;2023-11-19T11:06:46;17.10;99.90
43999;DHT22;51319;52.162;5.302;2023-11-19T11:09:15;17.20;99.90
43999;DHT22;51319;52.162;5.302;2023-11-19T11:11:50;17.10;99.90
43999;DHT22;51319;52.162;5.302;2023-11-19T11:14:20;16.80;99.90
43999;DHT22;51319;52.162;5.302;2023-11-19T11:16:48;16.90;99.90
43999;DHT22;51319;52.162;5.302;2023-11-19T11:19:17;17.00;99.90
43999;DHT22;51319;52.162;5.302;2023-11-19T11:21:53;16.80;99.90
43999;DHT22;51319;52.162;5.302;2023-11-19T11:33:19;15.30;99.90
43999;DHT22;51319;52.162;5.302;2023-11-19T11:36:10;15.40;99.90
43999;DHT22;51319;52.162;5.302;2023-11-19T11:38:41;15.20;99.90
43999;DHT22;51319;52.162;5.302;2023-11-19T11:41:16;15.10;99.90
43999;DHT22;51319;52.162;5.302;2023-11-19T11:43:50;15.10;99.90
43999;DHT22;51319;52.162;5.302;2023-11-19T11:49:02;15.00;99.90
43999;DHT22;51319;52.162;5.302;2023-11-19T11:57:11;14.50;99.90
43999;DHT22;51319;52.162;5.302;2023-11-19T11:59:50;14.40;99.90
43999;DHT22;51319;52.162;5.302;2023-11-19T12:02:21;14.40;99.90
43999;DHT22;51319;52.162;5.302;2023-11-19T12:04:50;14.30;99.90
43999;DHT22;51319;52.162;5.302;2023-11-19T12:07:21;14.30;99.90
43999;DHT22;51319;52.162;5.302;2023-11-19T12:10:09;14.20;99.90
43999;DHT22;51319;52.162;5.302;2023-11-19T12:12:39;14.20;99.90
43999;DHT22;51319;52.162;5.302;2023-11-19T12:15:08;14.10;99.90
43999;DHT22;51319;52.162;5.302;2023-11-19T12:17:49;14.10;99.90
43999;DHT22;51319;52.162;5.302;2023-11-19T12:20:18;14.30;99.90
43999;DHT22;51319;52.162;5.302;2023-11-19T12:22:49;14.50;99.90
43999;DHT22;51319;52.162;5.302;2023-11-19T12:25:17;14.60;99.90
43999;DHT22;51319;52.162;5.302;2023-11-19T12:27:50;14.50;99.90
43999;DHT22;51319;52.162;5.302;2023-11-19T12:30:24;14.40;99.90
43999;DHT22;51319;52.162;5.302;2023-11-19T12:32:53;14.20;99.90
43999;DHT22;51319;52.162;5.302;2023-11-19T12:35:22;14.20;99.90
43999;DHT22;51319;52.162;5.302;2023-11-19T12:37:50;14.20;99.90
43999;DHT22;51319;52.162;5.302;2023-11-19T12:40:25;14.10;99.90
43999;DHT22;51319;52.162;5.302;2023-11-19T12:42:56;14.10;99.90
43999;DHT22;51319;52.162;5.302;2023-11-19T12:45:24;14.00;99.90
43999;DHT22;51319;52.162;5.302;2023-11-19T12:48:07;14.00;99.90
43999;DHT22;51319;52.162;5.302;2023-11-19T12:51:05;13.90;99.90
43999;DHT22;51319;52.162;5.302;2023-11-19T12:53:51;13.90;99.90
43999;DHT22;51319;52.162;5.302;2023-11-19T12:56:21;13.90;99.90
43999;DHT22;51319;52.162;5.302;2023-11-19T12:58:52;13.90;99.90
43999;DHT22;51319;52.162;5.302;2023-11-19T13:01:23;13.80;99.90
43999;DHT22;51319;52.162;5.302;2023-11-19T13:03:53;13.80;99.90
43999;DHT22;51319;52.162;5.302;2023-11-19T13:06:20;13.80;99.90
43999;DHT22;51319;52.162;5.302;2023-11-19T13:08:51;13.80;99.90
43999;DHT22;51319;52.162;5.302;2023-11-19T13:11:35;13.80;99.90
43999;DHT22;51319;52.162;5.302;2023-11-19T13:14:04;13.70;99.90
43999;DHT22;51319;52.162;5.302;2023-11-19T13:16:32;13.70;99.90
43999;DHT22;51319;52.162;5.302;2023-11-19T13:18:59;13.60;99.90
43999;DHT22;51319;52.162;5.302;2023-11-19T13:21:29;13.60;99.90
43999;DHT22;51319;52.162;5.302;2023-11-19T13:23:59;13.60;99.90
43999;DHT22;51319;52.162;5.302;2023-11-19T13:26:28;13.60;99.90
43999;DHT22;51319;52.162;5.302;2023-11-19T13:28:55;13.60;99.90
43999;DHT22;51319;52.162;5.302;2023-11-19T13:31:22;13.60;99.90
43999;DHT22;51319;52.162;5.302;2023-11-19T13:33:49;13.60;99.90
43999;DHT22;51319;52.162;5.302;2023-11-19T13:36:17;13.60;99.90
43999;DHT22;51319;52.162;5.302;2023-11-19T13:38:44;13.60;99.90
43999;DHT22;51319;52.162;5.302;2023-11-19T13:41:12;13.70;99.90
43999;DHT22;51319;52.162;5.302;2023-11-19T13:43:40;13.70;99.90
43999;DHT22;51319;52.162;5.302;2023-11-19T13:46:07;13.70;99.90
43999;DHT22;51319;52.162;5.302;2023-11-19T13:48:37;13.70;99.90
43999;DHT22;51319;52.162;5.302;2023-11-19T13:51:05;13.80;99.90
43999;DHT22;51319;52.162;5.302;2023-11-19T13:53:32;13.90;99.90
43999;DHT22;51319;52.162;5.302;2023-11-19T13:56:17;14.00;99.90
43999;DHT22;51319;52.162;5.302;2023-11-19T13:58:44;14.00;99.90
43999;DHT22;51319;52.162;5.302;2023-11-19T14:01:12;14.00;99.90
43999;DHT22;51319;52.162;5.302;2023-11-19T14:03:40;13.90;99.90
43999;DHT22;51319;52.162;5.302;2023-11-19T14:06:08;13.90;99.90
43999;DHT22;51319;52.162;5.302;2023-11-19T14:08:36;13.90;99.90
43999;DHT22;51319;52.162;5.302;2023-11-19T14:11:03;13.80;99.90
43999;DHT22;51319;52.162;5.302;2023-11-19T14:13:34;13.80;99.90
43999;DHT22;51319;52.162;5.302;2023-11-19T14:16:01;13.80;99.90
43999;DHT22;51319;52.162;5.302;2023-11-19T14:18:29;13.80;99.90
43999;DHT22;51319;52.162;5.302;2023-11-19T14:20:56;13.80;99.90
43999;DHT22;51319;52.162;5.302;2023-11-19T14:23:23;13.80;99.90
43999;DHT22;51319;52.162;5.302;2023-11-19T14:25:51;13.80;99.90
43999;DHT22;51319;52.162;5.302;2023-11-19T14:28:17;13.80;99.90
43999;DHT22;51319;52.162;5.302;2023-11-19T14:30:44;13.70;99.90
43999;DHT22;51319;52.162;5.302;2023-11-19T14:33:13;13.60;99.90
43999;DHT22;51319;52.162;5.302;2023-11-19T14:35:39;13.60;99.90
43999;DHT22;51319;52.162;5.302;2023-11-19T14:38:06;13.50;99.90
43999;DHT22;51319;52.162;5.302;2023-11-19T14:40:36;13.50;99.90
43999;DHT22;51319;52.162;5.302;2023-11-19T14:43:06;13.50;99.90
43999;DHT22;51319;52.162;5.302;2023-11-19T14:45:33;13.50;99.90
43999;DHT22;51319;52.162;5.302;2023-11-19T14:48:10;13.50;99.90
43999;DHT22;51319;52.162;5.302;2023-11-19T14:50:38;13.40;99.90
43999;DHT22;51319;52.162;5.302;2023-11-19T14:53:05;13.40;99.90
43999;DHT22;51319;52.162;5.302;2023-11-19T14:55:32;13.40;99.90
43999;DHT22;51319;52.162;5.302;2023-11-19T14:57:59;13.40;99.90
43999;DHT22;51319;52.162;5.302;2023-11-19T15:00:35;13.40;99.90
43999;DHT22;51319;52.162;5.302;2023-11-19T15:03:02;13.30;99.90
43999;DHT22;51319;52.162;5.302;2023-11-19T15:05:30;13.30;99.90
43999;DHT22;51319;52.162;5.302;2023-11-19T15:07:57;13.30;99.90
43999;DHT22;51319;52.162;5.302;2023-11-19T15:10:24;13.20;99.90
43999;DHT22;51319;52.162;5.302;2023-11-19T15:12:52;13.20;99.90
43999;DHT22;51319;52.162;5.302;2023-11-19T15:15:20;13.20;99.90
43999;DHT22;51319;52.162;5.302;2023-11-19T15:17:51;13.10;99.90
43999;DHT22;51319;52.162;5.302;2023-11-19T15:20:18;13.10;99.90
43999;DHT22;51319;52.162;5.302;2023-11-19T15:22:46;13.10;99.90
43999;DHT22;51319;52.162;5.302;2023-11-19T15:25:13;13.10;99.90
43999;DHT22;51319;52.162;5.302;2023-11-19T15:27:41;13.10;99.90
43999;DHT22;51319;52.162;5.302;2023-11-19T15:30:08;13.10;99.90
43999;DHT22;51319;52.162;5.302;2023-11-19T15:32:37;13.00;99.90
43999;DHT22;51319;52.162;5.302;2023-11-19T15:35:06;13.00;99.90
43999;DHT22;51319;52.162;5.302;2023-11-19T15:37:34;13.10;99.90
43999;DHT22;51319;52.162;5.302;2023-11-19T15:40:02;13.00;99.90
43999;DHT22;51319;52.162;5.302;2023-11-19T15:42:33;13.00;99.90
43999;DHT22;51319;52.162;5.302;2023-11-19T15:45:00;13.00;99.90
43999;DHT22;51319;52.162;5.302;2023-11-19T15:47:29;13.00;99.90
43999;DHT22;51319;52.162;5.302;2023-11-19T15:50:02;13.00;99.90
43999;DHT22;51319;52.162;5.302;2023-11-19T15:52:32;12.90;99.90
43999;DHT22;51319;52.162;5.302;2023-11-19T15:54:59;12.90;99.90
43999;DHT22;51319;52.162;5.302;2023-11-19T15:57:26;13.00;99.90
43999;DHT22;51319;52.162;5.302;2023-11-19T15:59:54;12.90;99.90